sensor_id;sensor_type;location;lat;lon;timestamp;temperature;humidity
15203;DHT22;7702;51.046;5.184;2022-08-19T00:00:05;18.40;99.90
15203;DHT22;7702;51.046;5.184;2022-08-19T00:02:32;18.40;99.90
15203;DHT22;7702;51.046;5.184;2022-08-19T00:04:59;18.40;99.90
15203;DHT22;7702;51.046;5.184;2022-08-19T00:07:24;18.40;99.90
15203;DHT22;7702;51.046;5.184;2022-08-19T00:09:50;18.30;99.90
15203;DHT22;7702;51.046;5.184;2022-08-19T00:12:16;18.30;99.90
15203;DHT22;7702;51.046;5.184;2022-08-19T00:14:42;18.30;99.90
15203;DHT22;7702;51.046;5.184;2022-08-19T00:17:08;18.20;99.90
15203;DHT22;7702;51.046;5.184;2022-08-19T00:19:35;18.20;99.90
15203;DHT22;7702;51.046;5.184;2022-08-19T00:22:01;18.20;99.90
15203;DHT22;7702;51.046;5.184;2022-08-19T00:24:28;18.10;99.90
15203;DHT22;7702;51.046;5.184;2022-08-19T00:26:55;18.10;99.90
15203;DHT22;7702;51.046;5.184;2022-08-19T00:29:23;18.10;99.90
15203;DHT22;7702;51.046;5.184;2022-08-19T00:31:50;18.00;99.90
15203;DHT22;7702;51.046;5.184;2022-08-19T00:34:20;18.00;99.90
15203;DHT22;7702;51.046;5.184;2022-08-19T00:36:46;18.00;99.90
15203;DHT22;7702;51.046;5.184;2022-08-19T00:39:13;17.90;99.90
15203;DHT22;7702;51.046;5.184;2022-08-19T00:41:40;17.90;99.90
15203;DHT22;7702;51.046;5.184;2022-08-19T00:44:12;17.90;99.90
15203;DHT22;7702;51.046;5.184;2022-08-19T00:46:42;17.90;99.90
15203;DHT22;7702;51.046;5.184;2022-08-19T00:49:18;17.90;99.90
15203;DHT22;7702;51.046;5.184;2022-08-19T00:51:47;17.90;99.90
15203;DHT22;7702;51.046;5.184;2022-08-19T00:54:15;17.80;99.90
15203;DHT22;7702;51.046;5.184;2022-08-19T00:56:41;17.80;99.90
15203;DHT22;7702;51.046;5.184;2022-08-19T00:59:09;17.80;99.90
15203;DHT22;7702;51.046;5.184;2022-08-19T01:01:39;17.80;99.90
15203;DHT22;7702;51.046;5.184;2022-08-19T01:04:06;17.80;99.90
15203;DHT22;7702;51.046;5.184;2022-08-19T01:06:32;17.90;99.90
15203;DHT22;7702;51.046;5.184;2022-08-19T01:08:59;17.90;99.90
15203;DHT22;7702;51.046;5.184;2022-08-19T01:11:26;18.00;99.90
15203;DHT22;7702;51.046;5.184;2022-08-19T01:13:53;18.10;99.90
15203;DHT22;7702;51.046;5.184;2022-08-19T01:16:21;18.10;99.90
15203;DHT22;7702;51.046;5.184;2022-08-19T01:18:48;18.00;99.90
15203;DHT22;7702;51.046;5.184;2022-08-19T01:21:31;18.00;99.90
15203;DHT22;7702;51.046;5.184;2022-08-19T01:23:58;18.00;99.90
15203;DHT22;7702;51.046;5.184;2022-08-19T01:26:25;18.00;99.90
15203;DHT22;7702;51.046;5.184;2022-08-19T01:28:54;17.90;99.90
15203;DHT22;7702;51.046;5.184;2022-08-19T01:31:26;18.00;99.90
15203;DHT22;7702;51.046;5.184;2022-08-19T01:33:54;18.00;99.90
15203;DHT22;7702;51.046;5.184;2022-08-19T01:36:34;18.00;99.90
15203;DHT22;7702;51.046;5.184;2022-08-19T01:39:07;17.90;99.90
15203;DHT22;7702;51.046;5.184;2022-08-19T01:41:34;17.90;99.90
15203;DHT22;7702;51.046;5.184;2022-08-19T01:44:00;17.90;99.90
15203;DHT22;7702;51.046;5.184;2022-08-19T01:46:29;18.00;99.90
15203;DHT22;7702;51.046;5.184;2022-08-19T01:48:55;18.00;99.90
15203;DHT22;7702;51.046;5.184;2022-08-19T01:51:22;17.90;99.90
15203;DHT22;7702;51.046;5.184;2022-08-19T01:53:49;17.90;99.90
15203;DHT22;7702;51.046;5.184;2022-08-19T01:56:16;17.90;99.90
15203;DHT22;7702;51.046;5.184;2022-08-19T01:58:47;17.90;99.90
15203;DHT22;7702;51.046;5.184;2022-08-19T02:01:14;17.90;99.90
15203;DHT22;7702;51.046;5.184;2022-08-19T02:03:40;17.90;99.90
15203;DHT22;7702;51.046;5.184;2022-08-19T02:06:06;17.90;99.90
15203;DHT22;7702;51.046;5.184;2022-08-19T02:08:36;17.90;99.90
15203;DHT22;7702;51.046;5.184;2022-08-19T02:11:02;17.90;99.90
15203;DHT22;7702;51.046;5.184;2022-08-19T02:13:28;17.90;99.90
15203;DHT22;7702;51.046;5.184;2022-08-19T02:15:54;17.90;99.90
15203;DHT22;7702;51.046;5.184;2022-08-19T02:18:20;17.80;99.90
15203;DHT22;7702;51.046;5.184;2022-08-19T02:20:46;17.90;99.90
15203;DHT22;7702;51.046;5.184;2022-08-19T02:23:15;17.80;99.90
15203;DHT22;7702;51.046;5.184;2022-08-19T02:25:45;17.80;99.90
15203;DHT22;7702;51.046;5.184;2022-08-19T02:28:11;17.70;99.90
15203;DHT22;7702;51.046;5.184;2022-08-19T02:30:38;17.70;99.90
15203;DHT22;7702;51.046;5.184;2022-08-19T02:33:04;17.70;99.90
15203;DHT22;7702;51.046;5.184;2022-08-19T02:35:30;17.70;99.90
15203;DHT22;7702;51.046;5.184;2022-08-19T02:37:56;17.70;99.90
15203;DHT22;7702;51.046;5.184;2022-08-19T02:40:46;17.70;99.90
15203;DHT22;7702;51.046;5.184;2022-08-19T02:43:14;17.70;99.90
15203;DHT22;7702;51.046;5.184;2022-08-19T02:45:41;17.70;99.90
15203;DHT22;7702;51.046;5.184;2022-08-19T02:48:06;17.70;99.90
15203;DHT22;7702;51.046;5.184;2022-08-19T02:50:38;17.60;99.90
15203;DHT22;7702;51.046;5.184;2022-08-19T02:53:04;17.60;99.90
15203;DHT22;7702;51.046;5.184;2022-08-19T02:55:29;17.50;99.90
15203;DHT22;7702;51.046;5.184;2022-08-19T02:57:56;17.50;99.90
15203;DHT22;7702;51.046;5.184;2022-08-19T03:00:22;17.60;99.90
15203;DHT22;7702;51.046;5.184;2022-08-19T03:02:49;17.50;99.90
15203;DHT22;7702;51.046;5.184;2022-08-19T03:05:15;17.50;99.90
15203;DHT22;7702;51.046;5.184;2022-08-19T03:07:41;17.60;99.90
15203;DHT22;7702;51.046;5.184;2022-08-19T03:10:07;17.50;99.90
15203;DHT22;7702;51.046;5.184;2022-08-19T03:12:36;17.50;99.90
15203;DHT22;7702;51.046;5.184;2022-08-19T03:15:07;17.50;99.90
15203;DHT22;7702;51.046;5.184;2022-08-19T03:17:34;17.50;99.90
15203;DHT22;7702;51.046;5.184;2022-08-19T03:20:00;17.50;99.90
15203;DHT22;7702;51.046;5.184;2022-08-19T03:22:26;17.50;99.90
15203;DHT22;7702;51.046;5.184;2022-08-19T03:24:52;17.40;99.90
15203;DHT22;7702;51.046;5.184;2022-08-19T03:27:19;17.40;99.90
15203;DHT22;7702;51.046;5.184;2022-08-19T03:29:44;17.40;99.90
15203;DHT22;7702;51.046;5.184;2022-08-19T03:32:11;17.40;99.90
15203;DHT22;7702;51.046;5.184;2022-08-19T03:34:38;17.40;99.90
15203;DHT22;7702;51.046;5.184;2022-08-19T03:37:07;17.50;99.90
15203;DHT22;7702;51.046;5.184;2022-08-19T03:39:35;17.40;99.90
15203;DHT22;7702;51.046;5.184;2022-08-19T03:42:01;17.40;99.90
15203;DHT22;7702;51.046;5.184;2022-08-19T03:44:28;17.40;99.90
15203;DHT22;7702;51.046;5.184;2022-08-19T03:46:57;17.40;99.90
15203;DHT22;7702;51.046;5.184;2022-08-19T03:49:25;17.40;99.90
15203;DHT22;7702;51.046;5.184;2022-08-19T03:51:52;17.30;99.90
15203;DHT22;7702;51.046;5.184;2022-08-19T03:54:20;17.20;99.90
15203;DHT22;7702;51.046;5.184;2022-08-19T03:56:49;17.20;99.90
15203;DHT22;7702;51.046;5.184;2022-08-19T03:59:19;17.20;99.90
15203;DHT22;7702;51.046;5.184;2022-08-19T04:01:45;17.20;99.90
15203;DHT22;7702;51.046;5.184;2022-08-19T04:04:11;17.10;99.90
15203;DHT22;7702;51.046;5.184;2022-08-19T04:06:38;17.10;99.90
15203;DHT22;7702;51.046;5.184;2022-08-19T04:09:08;17.00;99.90
15203;DHT22;7702;51.046;5.184;2022-08-19T04:11:37;17.00;99.90
15203;DHT22;7702;51.046;5.184;2022-08-19T04:14:06;17.00;99.90
15203;DHT22;7702;51.046;5.184;2022-08-19T04:16:33;17.00;99.90
15203;DHT22;7702;51.046;5.184;2022-08-19T04:19:01;17.00;99.90
15203;DHT22;7702;51.046;5.184;2022-08-19T04:21:28;17.10;99.90
15203;DHT22;7702;51.046;5.184;2022-08-19T04:23:55;17.00;99.90
15203;DHT22;7702;51.046;5.184;2022-08-19T04:26:27;17.00;99.90
15203;DHT22;7702;51.046;5.184;2022-08-19T04:28:53;16.90;99.90
15203;DHT22;7702;51.046;5.184;2022-08-19T04:31:22;16.90;99.90
15203;DHT22;7702;51.046;5.184;2022-08-19T04:33:52;16.90;99.90
15203;DHT22;7702;51.046;5.184;2022-08-19T04:36:26;17.00;99.90
15203;DHT22;7702;51.046;5.184;2022-08-19T04:39:04;16.90;99.90
15203;DHT22;7702;51.046;5.184;2022-08-19T04:41:30;16.90;99.90
15203;DHT22;7702;51.046;5.184;2022-08-19T04:44:14;16.80;99.90
15203;DHT22;7702;51.046;5.184;2022-08-19T04:46:44;16.80;99.90
15203;DHT22;7702;51.046;5.184;2022-08-19T04:49:10;16.80;99.90
15203;DHT22;7702;51.046;5.184;2022-08-19T04:51:39;16.90;99.90
15203;DHT22;7702;51.046;5.184;2022-08-19T04:54:05;16.90;99.90
15203;DHT22;7702;51.046;5.184;2022-08-19T04:56:31;16.90;99.90
15203;DHT22;7702;51.046;5.184;2022-08-19T04:58:58;16.80;99.90
15203;DHT22;7702;51.046;5.184;2022-08-19T05:01:29;16.80;99.90
15203;DHT22;7702;51.046;5.184;2022-08-19T05:03:55;16.80;99.90
15203;DHT22;7702;51.046;5.184;2022-08-19T05:06:22;16.80;99.90
15203;DHT22;7702;51.046;5.184;2022-08-19T05:08:49;16.90;99.90
15203;DHT22;7702;51.046;5.184;2022-08-19T05:11:25;16.90;99.90
15203;DHT22;7702;51.046;5.184;2022-08-19T05:13:51;16.90;99.90
15203;DHT22;7702;51.046;5.184;2022-08-19T05:16:19;16.90;99.90
15203;DHT22;7702;51.046;5.184;2022-08-19T05:18:45;16.90;99.90
15203;DHT22;7702;51.046;5.184;2022-08-19T05:21:42;16.90;99.90
15203;DHT22;7702;51.046;5.184;2022-08-19T05:24:27;17.00;99.90
15203;DHT22;7702;51.046;5.184;2022-08-19T05:26:55;17.00;99.90
15203;DHT22;7702;51.046;5.184;2022-08-19T05:29:24;17.00;99.90
15203;DHT22;7702;51.046;5.184;2022-08-19T05:31:51;17.00;99.90
15203;DHT22;7702;51.046;5.184;2022-08-19T05:34:19;17.00;99.90
15203;DHT22;7702;51.046;5.184;2022-08-19T05:36:48;17.10;99.90
15203;DHT22;7702;51.046;5.184;2022-08-19T05:39:18;17.10;99.90
15203;DHT22;7702;51.046;5.184;2022-08-19T05:41:47;17.20;99.90
15203;DHT22;7702;51.046;5.184;2022-08-19T05:44:14;17.30;99.90
15203;DHT22;7702;51.046;5.184;2022-08-19T05:46:41;17.30;99.90
15203;DHT22;7702;51.046;5.184;2022-08-19T05:49:08;17.30;99.90
15203;DHT22;7702;51.046;5.184;2022-08-19T05:51:35;17.40;99.90
15203;DHT22;7702;51.046;5.184;2022-08-19T05:54:05;17.50;99.90
15203;DHT22;7702;51.046;5.184;2022-08-19T05:56:31;17.50;99.90
15203;DHT22;7702;51.046;5.184;2022-08-19T05:58:58;17.50;99.90
15203;DHT22;7702;51.046;5.184;2022-08-19T06:01:25;17.60;99.90
15203;DHT22;7702;51.046;5.184;2022-08-19T06:03:52;17.50;99.90
15203;DHT22;7702;51.046;5.184;2022-08-19T06:06:19;17.60;99.90
15203;DHT22;7702;51.046;5.184;2022-08-19T06:08:45;17.60;99.90
15203;DHT22;7702;51.046;5.184;2022-08-19T06:11:25;17.70;99.90
15203;DHT22;7702;51.046;5.184;2022-08-19T06:14:01;17.80;99.90
15203;DHT22;7702;51.046;5.184;2022-08-19T06:16:27;17.90;99.90
15203;DHT22;7702;51.046;5.184;2022-08-19T06:18:55;17.90;99.90
15203;DHT22;7702;51.046;5.184;2022-08-19T06:21:24;17.90;99.90
15203;DHT22;7702;51.046;5.184;2022-08-19T06:23:51;18.00;99.90
15203;DHT22;7702;51.046;5.184;2022-08-19T06:26:18;18.10;99.90
15203;DHT22;7702;51.046;5.184;2022-08-19T06:28:46;18.10;99.90
15203;DHT22;7702;51.046;5.184;2022-08-19T06:31:14;18.10;99.90
15203;DHT22;7702;51.046;5.184;2022-08-19T06:33:40;18.20;99.90
15203;DHT22;7702;51.046;5.184;2022-08-19T06:36:07;18.40;99.90
15203;DHT22;7702;51.046;5.184;2022-08-19T06:38:33;18.60;99.90
15203;DHT22;7702;51.046;5.184;2022-08-19T06:41:03;18.60;99.90
15203;DHT22;7702;51.046;5.184;2022-08-19T06:43:29;18.60;99.90
15203;DHT22;7702;51.046;5.184;2022-08-19T06:45:55;18.70;99.90
15203;DHT22;7702;51.046;5.184;2022-08-19T06:48:20;18.70;99.90
15203;DHT22;7702;51.046;5.184;2022-08-19T06:50:46;18.70;99.90
15203;DHT22;7702;51.046;5.184;2022-08-19T06:53:15;18.60;99.90
15203;DHT22;7702;51.046;5.184;2022-08-19T06:55:40;18.70;99.90
15203;DHT22;7702;51.046;5.184;2022-08-19T06:58:07;18.70;99.90
15203;DHT22;7702;51.046;5.184;2022-08-19T07:00:33;18.70;99.90
15203;DHT22;7702;51.046;5.184;2022-08-19T07:02:59;18.80;99.90
15203;DHT22;7702;51.046;5.184;2022-08-19T07:05:25;19.00;99.90
15203;DHT22;7702;51.046;5.184;2022-08-19T07:07:51;19.10;99.90
15203;DHT22;7702;51.046;5.184;2022-08-19T07:10:17;19.20;99.90
15203;DHT22;7702;51.046;5.184;2022-08-19T07:12:43;19.20;99.90
15203;DHT22;7702;51.046;5.184;2022-08-19T07:15:10;19.20;99.90
15203;DHT22;7702;51.046;5.184;2022-08-19T07:17:37;19.40;99.90
15203;DHT22;7702;51.046;5.184;2022-08-19T07:20:05;19.60;99.90
15203;DHT22;7702;51.046;5.184;2022-08-19T07:22:33;19.60;99.90
15203;DHT22;7702;51.046;5.184;2022-08-19T07:24:59;19.70;99.90
15203;DHT22;7702;51.046;5.184;2022-08-19T07:27:25;19.70;99.90
15203;DHT22;7702;51.046;5.184;2022-08-19T07:29:52;19.70;99.90
15203;DHT22;7702;51.046;5.184;2022-08-19T07:32:18;19.70;99.90
15203;DHT22;7702;51.046;5.184;2022-08-19T07:34:44;19.70;99.90
15203;DHT22;7702;51.046;5.184;2022-08-19T07:37:11;19.70;99.90
15203;DHT22;7702;51.046;5.184;2022-08-19T07:39:37;19.70;99.90
15203;DHT22;7702;51.046;5.184;2022-08-19T07:42:07;19.90;99.90
15203;DHT22;7702;51.046;5.184;2022-08-19T07:44:33;20.10;99.90
15203;DHT22;7702;51.046;5.184;2022-08-19T07:47:00;20.20;99.90
15203;DHT22;7702;51.046;5.184;2022-08-19T07:49:26;20.10;99.90
15203;DHT22;7702;51.046;5.184;2022-08-19T07:51:58;19.90;99.90
15203;DHT22;7702;51.046;5.184;2022-08-19T07:54:28;20.10;99.90
15203;DHT22;7702;51.046;5.184;2022-08-19T07:56:54;20.00;99.90
15203;DHT22;7702;51.046;5.184;2022-08-19T07:59:21;20.00;99.90
15203;DHT22;7702;51.046;5.184;2022-08-19T08:01:47;20.10;99.90
15203;DHT22;7702;51.046;5.184;2022-08-19T08:04:14;20.20;99.90
15203;DHT22;7702;51.046;5.184;2022-08-19T08:06:58;20.40;99.90
15203;DHT22;7702;51.046;5.184;2022-08-19T08:09:43;20.20;99.90
15203;DHT22;7702;51.046;5.184;2022-08-19T08:12:17;20.10;99.90
15203;DHT22;7702;51.046;5.184;2022-08-19T08:14:47;20.30;99.90
15203;DHT22;7702;51.046;5.184;2022-08-19T08:17:15;20.30;99.90
15203;DHT22;7702;51.046;5.184;2022-08-19T08:19:41;20.50;99.90
15203;DHT22;7702;51.046;5.184;2022-08-19T08:22:08;20.70;99.90
15203;DHT22;7702;51.046;5.184;2022-08-19T08:24:54;21.00;99.90
15203;DHT22;7702;51.046;5.184;2022-08-19T08:27:23;21.10;99.90
15203;DHT22;7702;51.046;5.184;2022-08-19T08:29:49;21.20;99.90
15203;DHT22;7702;51.046;5.184;2022-08-19T08:32:15;21.10;99.90
15203;DHT22;7702;51.046;5.184;2022-08-19T08:34:41;21.30;99.90
15203;DHT22;7702;51.046;5.184;2022-08-19T08:37:07;21.40;99.90
15203;DHT22;7702;51.046;5.184;2022-08-19T08:39:33;21.40;99.90
15203;DHT22;7702;51.046;5.184;2022-08-19T08:42:07;21.60;99.90
15203;DHT22;7702;51.046;5.184;2022-08-19T08:47:04;21.80;99.90
15203;DHT22;7702;51.046;5.184;2022-08-19T08:52:13;22.40;99.90
15203;DHT22;7702;51.046;5.184;2022-08-19T08:54:44;22.50;99.90
15203;DHT22;7702;51.046;5.184;2022-08-19T08:57:15;22.10;99.90
15203;DHT22;7702;51.046;5.184;2022-08-19T08:59:46;22.10;99.90
15203;DHT22;7702;51.046;5.184;2022-08-19T09:02:16;21.80;99.90
15203;DHT22;7702;51.046;5.184;2022-08-19T09:04:42;22.10;99.90
15203;DHT22;7702;51.046;5.184;2022-08-19T09:09:44;22.50;99.90
15203;DHT22;7702;51.046;5.184;2022-08-19T09:12:26;22.50;99.90
15203;DHT22;7702;51.046;5.184;2022-08-19T09:14:57;22.50;99.90
15203;DHT22;7702;51.046;5.184;2022-08-19T09:17:26;22.90;99.90
15203;DHT22;7702;51.046;5.184;2022-08-19T09:20:08;23.30;99.90
15203;DHT22;7702;51.046;5.184;2022-08-19T09:22:40;23.30;99.90
15203;DHT22;7702;51.046;5.184;2022-08-19T09:25:09;23.10;99.90
15203;DHT22;7702;51.046;5.184;2022-08-19T09:27:37;23.00;99.90
15203;DHT22;7702;51.046;5.184;2022-08-19T09:30:04;23.30;99.90
15203;DHT22;7702;51.046;5.184;2022-08-19T09:32:31;23.40;99.90
15203;DHT22;7702;51.046;5.184;2022-08-19T09:34:56;23.70;99.90
15203;DHT22;7702;51.046;5.184;2022-08-19T09:37:24;23.60;99.90
15203;DHT22;7702;51.046;5.184;2022-08-19T09:39:50;23.50;99.90
15203;DHT22;7702;51.046;5.184;2022-08-19T09:42:16;23.60;99.90
15203;DHT22;7702;51.046;5.184;2022-08-19T09:44:42;23.50;99.90
15203;DHT22;7702;51.046;5.184;2022-08-19T09:47:12;23.70;99.90
15203;DHT22;7702;51.046;5.184;2022-08-19T09:49:39;24.00;99.90
15203;DHT22;7702;51.046;5.184;2022-08-19T09:52:07;24.40;99.90
15203;DHT22;7702;51.046;5.184;2022-08-19T09:54:33;24.40;99.90
15203;DHT22;7702;51.046;5.184;2022-08-19T09:56:59;25.20;99.90
15203;DHT22;7702;51.046;5.184;2022-08-19T09:59:26;25.30;99.90
15203;DHT22;7702;51.046;5.184;2022-08-19T10:01:52;25.00;99.90
15203;DHT22;7702;51.046;5.184;2022-08-19T10:04:18;24.70;99.90
15203;DHT22;7702;51.046;5.184;2022-08-19T10:06:48;24.90;99.90
15203;DHT22;7702;51.046;5.184;2022-08-19T10:09:16;24.80;99.90
15203;DHT22;7702;51.046;5.184;2022-08-19T10:11:43;25.10;99.90
15203;DHT22;7702;51.046;5.184;2022-08-19T10:14:11;25.40;99.90
15203;DHT22;7702;51.046;5.184;2022-08-19T10:16:37;26.20;99.90
15203;DHT22;7702;51.046;5.184;2022-08-19T10:19:05;26.10;99.90
15203;DHT22;7702;51.046;5.184;2022-08-19T10:21:32;26.10;99.90
15203;DHT22;7702;51.046;5.184;2022-08-19T10:24:01;26.10;99.90
15203;DHT22;7702;51.046;5.184;2022-08-19T10:26:31;25.60;99.90
15203;DHT22;7702;51.046;5.184;2022-08-19T10:28:57;25.40;99.90
15203;DHT22;7702;51.046;5.184;2022-08-19T10:31:28;24.70;99.90
15203;DHT22;7702;51.046;5.184;2022-08-19T10:33:55;24.40;99.90
15203;DHT22;7702;51.046;5.184;2022-08-19T10:36:25;24.60;99.90
15203;DHT22;7702;51.046;5.184;2022-08-19T10:38:53;24.80;99.90
15203;DHT22;7702;51.046;5.184;2022-08-19T10:41:21;24.80;99.90
15203;DHT22;7702;51.046;5.184;2022-08-19T10:43:54;24.50;99.90
15203;DHT22;7702;51.046;5.184;2022-08-19T10:46:22;24.40;99.90
15203;DHT22;7702;51.046;5.184;2022-08-19T10:48:49;24.30;99.90
15203;DHT22;7702;51.046;5.184;2022-08-19T10:51:15;24.30;99.90
15203;DHT22;7702;51.046;5.184;2022-08-19T10:54:00;24.60;99.90
15203;DHT22;7702;51.046;5.184;2022-08-19T10:56:27;24.60;99.90
15203;DHT22;7702;51.046;5.184;2022-08-19T10:59:11;24.80;99.90
15203;DHT22;7702;51.046;5.184;2022-08-19T11:01:39;25.10;99.90
15203;DHT22;7702;51.046;5.184;2022-08-19T11:04:06;25.50;99.90
15203;DHT22;7702;51.046;5.184;2022-08-19T11:06:36;25.50;99.90
15203;DHT22;7702;51.046;5.184;2022-08-19T11:09:03;25.50;99.90
15203;DHT22;7702;51.046;5.184;2022-08-19T11:11:28;25.40;99.90
15203;DHT22;7702;51.046;5.184;2022-08-19T11:13:54;25.70;99.90
15203;DHT22;7702;51.046;5.184;2022-08-19T11:16:22;25.30;99.90
15203;DHT22;7702;51.046;5.184;2022-08-19T11:18:51;25.30;99.90
15203;DHT22;7702;51.046;5.184;2022-08-19T11:23:55;25.50;99.90
15203;DHT22;7702;51.046;5.184;2022-08-19T11:26:22;25.00;99.90
15203;DHT22;7702;51.046;5.184;2022-08-19T11:28:48;24.70;99.90
15203;DHT22;7702;51.046;5.184;2022-08-19T11:31:21;25.20;99.90
15203;DHT22;7702;51.046;5.184;2022-08-19T11:33:47;25.80;99.90
15203;DHT22;7702;51.046;5.184;2022-08-19T11:36:16;26.00;99.90
15203;DHT22;7702;51.046;5.184;2022-08-19T11:38:45;25.90;99.90
15203;DHT22;7702;51.046;5.184;2022-08-19T11:41:12;25.90;99.90
15203;DHT22;7702;51.046;5.184;2022-08-19T11:43:37;25.60;99.90
15203;DHT22;7702;51.046;5.184;2022-08-19T11:46:07;25.70;99.90
15203;DHT22;7702;51.046;5.184;2022-08-19T11:48:34;25.70;99.90
15203;DHT22;7702;51.046;5.184;2022-08-19T11:51:04;26.10;99.90
15203;DHT22;7702;51.046;5.184;2022-08-19T11:53:31;26.20;99.90
15203;DHT22;7702;51.046;5.184;2022-08-19T11:55:57;26.30;99.90
15203;DHT22;7702;51.046;5.184;2022-08-19T11:58:23;26.00;99.90
15203;DHT22;7702;51.046;5.184;2022-08-19T12:00:50;26.20;99.90
15203;DHT22;7702;51.046;5.184;2022-08-19T12:03:16;26.30;99.90
15203;DHT22;7702;51.046;5.184;2022-08-19T12:05:43;26.40;99.90
15203;DHT22;7702;51.046;5.184;2022-08-19T12:08:09;26.30;99.90
15203;DHT22;7702;51.046;5.184;2022-08-19T12:10:35;25.90;99.90
15203;DHT22;7702;51.046;5.184;2022-08-19T12:13:01;26.40;99.90
15203;DHT22;7702;51.046;5.184;2022-08-19T12:15:28;26.40;99.90
15203;DHT22;7702;51.046;5.184;2022-08-19T12:17:55;26.10;99.90
15203;DHT22;7702;51.046;5.184;2022-08-19T12:20:23;26.00;99.90
15203;DHT22;7702;51.046;5.184;2022-08-19T12:22:50;26.00;99.90
15203;DHT22;7702;51.046;5.184;2022-08-19T12:25:16;26.10;99.90
15203;DHT22;7702;51.046;5.184;2022-08-19T12:27:42;26.00;99.90
15203;DHT22;7702;51.046;5.184;2022-08-19T12:30:12;26.30;99.90
15203;DHT22;7702;51.046;5.184;2022-08-19T12:32:38;26.10;99.90
15203;DHT22;7702;51.046;5.184;2022-08-19T12:35:04;26.10;99.90
15203;DHT22;7702;51.046;5.184;2022-08-19T12:37:30;26.10;99.90
15203;DHT22;7702;51.046;5.184;2022-08-19T12:39:57;26.00;99.90
15203;DHT22;7702;51.046;5.184;2022-08-19T12:42:23;26.00;99.90
15203;DHT22;7702;51.046;5.184;2022-08-19T12:44:50;26.10;99.90
15203;DHT22;7702;51.046;5.184;2022-08-19T12:47:17;25.90;99.90
15203;DHT22;7702;51.046;5.184;2022-08-19T12:49:43;25.70;99.90
15203;DHT22;7702;51.046;5.184;2022-08-19T12:52:10;25.60;99.90
15203;DHT22;7702;51.046;5.184;2022-08-19T12:54:36;25.60;99.90
15203;DHT22;7702;51.046;5.184;2022-08-19T12:57:07;25.40;99.90
15203;DHT22;7702;51.046;5.184;2022-08-19T12:59:34;25.20;99.90
15203;DHT22;7702;51.046;5.184;2022-08-19T13:02:05;25.10;99.90
15203;DHT22;7702;51.046;5.184;2022-08-19T13:04:32;24.80;99.90
15203;DHT22;7702;51.046;5.184;2022-08-19T13:07:00;24.80;99.90
15203;DHT22;7702;51.046;5.184;2022-08-19T13:09:26;24.60;99.90
15203;DHT22;7702;51.046;5.184;2022-08-19T13:11:51;24.70;99.90
15203;DHT22;7702;51.046;5.184;2022-08-19T13:14:17;24.70;99.90
15203;DHT22;7702;51.046;5.184;2022-08-19T13:16:44;24.90;99.90
15203;DHT22;7702;51.046;5.184;2022-08-19T13:19:10;24.60;99.90
15203;DHT22;7702;51.046;5.184;2022-08-19T13:21:37;24.60;99.90
15203;DHT22;7702;51.046;5.184;2022-08-19T13:24:03;24.70;99.90
15203;DHT22;7702;51.046;5.184;2022-08-19T13:26:29;24.80;99.90
15203;DHT22;7702;51.046;5.184;2022-08-19T13:28:55;25.00;99.90
15203;DHT22;7702;51.046;5.184;2022-08-19T13:31:41;25.10;99.90
15203;DHT22;7702;51.046;5.184;2022-08-19T13:34:33;25.70;99.90
15203;DHT22;7702;51.046;5.184;2022-08-19T13:37:01;26.10;99.90
15203;DHT22;7702;51.046;5.184;2022-08-19T13:39:32;26.00;99.90
15203;DHT22;7702;51.046;5.184;2022-08-19T13:41:58;26.40;99.90
15203;DHT22;7702;51.046;5.184;2022-08-19T13:44:27;26.60;99.90
15203;DHT22;7702;51.046;5.184;2022-08-19T13:46:55;26.50;99.90
15203;DHT22;7702;51.046;5.184;2022-08-19T13:49:27;26.30;99.90
15203;DHT22;7702;51.046;5.184;2022-08-19T13:51:56;26.10;99.90
15203;DHT22;7702;51.046;5.184;2022-08-19T13:54:22;26.40;99.90
15203;DHT22;7702;51.046;5.184;2022-08-19T13:56:47;26.40;99.90
15203;DHT22;7702;51.046;5.184;2022-08-19T13:59:13;26.60;99.90
15203;DHT22;7702;51.046;5.184;2022-08-19T14:01:39;26.80;99.90
15203;DHT22;7702;51.046;5.184;2022-08-19T14:04:06;27.20;99.90
15203;DHT22;7702;51.046;5.184;2022-08-19T14:06:32;27.90;99.90
15203;DHT22;7702;51.046;5.184;2022-08-19T14:08:58;27.80;99.90
15203;DHT22;7702;51.046;5.184;2022-08-19T14:11:24;28.00;99.90
15203;DHT22;7702;51.046;5.184;2022-08-19T14:13:50;28.10;99.90
15203;DHT22;7702;51.046;5.184;2022-08-19T14:16:16;27.50;99.90
15203;DHT22;7702;51.046;5.184;2022-08-19T14:18:43;27.50;99.90
15203;DHT22;7702;51.046;5.184;2022-08-19T14:21:15;27.60;99.90
15203;DHT22;7702;51.046;5.184;2022-08-19T14:23:41;27.60;99.90
15203;DHT22;7702;51.046;5.184;2022-08-19T14:26:13;27.60;99.90
15203;DHT22;7702;51.046;5.184;2022-08-19T14:28:39;27.40;99.90
15203;DHT22;7702;51.046;5.184;2022-08-19T14:31:10;27.90;99.90
15203;DHT22;7702;51.046;5.184;2022-08-19T14:33:36;27.90;99.90
15203;DHT22;7702;51.046;5.184;2022-08-19T14:36:03;27.70;99.90
15203;DHT22;7702;51.046;5.184;2022-08-19T14:38:28;27.20;99.90
15203;DHT22;7702;51.046;5.184;2022-08-19T14:41:15;27.00;99.90
15203;DHT22;7702;51.046;5.184;2022-08-19T14:43:42;27.20;99.90
15203;DHT22;7702;51.046;5.184;2022-08-19T14:46:12;28.30;99.90
15203;DHT22;7702;51.046;5.184;2022-08-19T14:48:39;28.50;99.90
15203;DHT22;7702;51.046;5.184;2022-08-19T14:51:05;28.80;99.90
15203;DHT22;7702;51.046;5.184;2022-08-19T14:53:31;28.90;99.90
15203;DHT22;7702;51.046;5.184;2022-08-19T14:55:59;28.20;99.90
15203;DHT22;7702;51.046;5.184;2022-08-19T14:58:26;28.10;99.90
15203;DHT22;7702;51.046;5.184;2022-08-19T15:00:51;27.60;99.90
15203;DHT22;7702;51.046;5.184;2022-08-19T15:03:17;27.30;99.90
15203;DHT22;7702;51.046;5.184;2022-08-19T15:05:42;26.80;99.90
15203;DHT22;7702;51.046;5.184;2022-08-19T15:08:08;26.60;99.90
15203;DHT22;7702;51.046;5.184;2022-08-19T15:10:34;26.40;99.90
15203;DHT22;7702;51.046;5.184;2022-08-19T15:13:00;26.40;99.90
15203;DHT22;7702;51.046;5.184;2022-08-19T15:15:25;26.50;99.90
15203;DHT22;7702;51.046;5.184;2022-08-19T15:17:51;26.50;99.90
15203;DHT22;7702;51.046;5.184;2022-08-19T15:20:19;26.40;99.90
15203;DHT22;7702;51.046;5.184;2022-08-19T15:22:46;26.20;99.90
15203;DHT22;7702;51.046;5.184;2022-08-19T15:25:15;26.00;99.90
15203;DHT22;7702;51.046;5.184;2022-08-19T15:27:41;26.00;99.90
15203;DHT22;7702;51.046;5.184;2022-08-19T15:30:09;26.00;99.90
15203;DHT22;7702;51.046;5.184;2022-08-19T15:32:36;26.00;99.90
15203;DHT22;7702;51.046;5.184;2022-08-19T15:35:03;25.90;99.90
15203;DHT22;7702;51.046;5.184;2022-08-19T15:37:30;26.20;99.90
15203;DHT22;7702;51.046;5.184;2022-08-19T15:39:55;26.50;99.90
15203;DHT22;7702;51.046;5.184;2022-08-19T15:42:21;26.60;99.90
15203;DHT22;7702;51.046;5.184;2022-08-19T15:44:47;26.40;99.90
15203;DHT22;7702;51.046;5.184;2022-08-19T15:47:13;26.40;99.90
15203;DHT22;7702;51.046;5.184;2022-08-19T15:49:39;26.20;99.90
15203;DHT22;7702;51.046;5.184;2022-08-19T15:52:05;26.10;99.90
15203;DHT22;7702;51.046;5.184;2022-08-19T15:54:32;26.00;99.90
15203;DHT22;7702;51.046;5.184;2022-08-19T15:56:58;26.00;99.90
15203;DHT22;7702;51.046;5.184;2022-08-19T15:59:59;25.70;99.90